Burnham, Maine
Current Conditions -  °F | °C
As of 8:35 AM on Tuesday 21 Oct 2014 (Local Time) from KWVL Reporting Station
Clear Clear  
Wind Chill: 43°   Ceiling: Unl
Heat Index: 43°   Visibility: 10mi
Dew Point: 34°   Wind: 3mph
Humidity: 70%   Direction: 20°NNE
Pressure: 30.03"   Gusts: NA
Location:  44.69°N, 69.43°W
Report Text: KWVL 211235Z 02003KT 10SM CLR 06/01 A3003 RMK AO1
Loading
Personal Weather Stations






























Interactive Weather Map New forecast layout! Learn more

10-Day Weather Forecast

Advertisements
Track Severe Weather on mobile